Terminal Aerodrome Forecast
Issued by NWS

Home | Current Version | Previous Version | Text Only | Print | Product List | Glossary On
Versions: 1 2 3 4 5 6 7 8 9 10 11 12
000
FTUS43 KGRR 270500
TAFJXN
TAF
KJXN 270540Z 2706/2806 02007KT P6SM SCT070
     FM270700 35008KT P6SM BKN060
     FM271100 32008KT P6SM SCT012 BKN020
     FM271600 35009KT P6SM FEW015 BKN030
     FM280000 04005KT P6SM BKN030=

USA.gov is the U.S. government's official web portal to all federal, state and local government web resources and services.